sensor_id;sensor_type;location;lat;lon;timestamp;P1;durP1;ratioP1;P2;durP2;ratioP2
4569;SDS011;2297;51.442;6.996;2022-10-31T00:00:08;18.73;;;9.13;;
4569;SDS011;2297;51.442;6.996;2022-10-31T00:02:37;16.85;;;7.53;;
4569;SDS011;2297;51.442;6.996;2022-10-31T00:05:04;16.08;;;7.90;;
4569;SDS011;2297;51.442;6.996;2022-10-31T00:07:31;18.85;;;8.25;;
4569;SDS011;2297;51.442;6.996;2022-10-31T00:09:58;20.63;;;8.98;;
4569;SDS011;2297;51.442;6.996;2022-10-31T00:12:25;16.88;;;7.90;;
4569;SDS011;2297;51.442;6.996;2022-10-31T00:14:52;19.52;;;8.43;;
4569;SDS011;2297;51.442;6.996;2022-10-31T00:17:18;15.73;;;7.65;;
4569;SDS011;2297;51.442;6.996;2022-10-31T00:19:46;21.40;;;8.45;;
4569;SDS011;2297;51.442;6.996;2022-10-31T00:22:13;15.80;;;7.78;;
4569;SDS011;2297;51.442;6.996;2022-10-31T00:24:40;15.00;;;8.10;;
4569;SDS011;2297;51.442;6.996;2022-10-31T00:27:06;19.95;;;8.48;;
4569;SDS011;2297;51.442;6.996;2022-10-31T00:29:33;15.88;;;8.23;;
4569;SDS011;2297;51.442;6.996;2022-10-31T00:32:00;18.27;;;8.15;;
4569;SDS011;2297;51.442;6.996;2022-10-31T00:34:26;19.25;;;9.02;;
4569;SDS011;2297;51.442;6.996;2022-10-31T00:36:54;17.42;;;8.43;;
4569;SDS011;2297;51.442;6.996;2022-10-31T00:39:21;17.23;;;8.70;;
4569;SDS011;2297;51.442;6.996;2022-10-31T00:41:47;17.55;;;8.18;;
4569;SDS011;2297;51.442;6.996;2022-10-31T00:44:14;18.55;;;9.00;;
4569;SDS011;2297;51.442;6.996;2022-10-31T00:46:41;20.80;;;9.10;;
4569;SDS011;2297;51.442;6.996;2022-10-31T00:49:07;20.98;;;9.60;;
4569;SDS011;2297;51.442;6.996;2022-10-31T00:51:34;15.60;;;8.35;;
4569;SDS011;2297;51.442;6.996;2022-10-31T00:54:02;21.60;;;9.10;;
4569;SDS011;2297;51.442;6.996;2022-10-31T00:56:29;20.48;;;8.65;;
4569;SDS011;2297;51.442;6.996;2022-10-31T00:58:55;16.45;;;8.48;;
4569;SDS011;2297;51.442;6.996;2022-10-31T01:01:22;22.63;;;9.48;;
4569;SDS011;2297;51.442;6.996;2022-10-31T01:03:49;22.00;;;8.48;;
4569;SDS011;2297;51.442;6.996;2022-10-31T01:06:15;20.35;;;9.57;;
4569;SDS011;2297;51.442;6.996;2022-10-31T01:08:42;18.17;;;9.13;;
4569;SDS011;2297;51.442;6.996;2022-10-31T01:11:11;14.90;;;9.27;;
4569;SDS011;2297;51.442;6.996;2022-10-31T01:13:39;19.73;;;8.95;;
4569;SDS011;2297;51.442;6.996;2022-10-31T01:16:07;21.10;;;9.43;;
4569;SDS011;2297;51.442;6.996;2022-10-31T01:18:36;19.77;;;9.30;;
4569;SDS011;2297;51.442;6.996;2022-10-31T01:21:06;18.85;;;8.25;;
4569;SDS011;2297;51.442;6.996;2022-10-31T01:23:34;16.23;;;9.00;;
4569;SDS011;2297;51.442;6.996;2022-10-31T01:26:02;21.52;;;9.40;;
4569;SDS011;2297;51.442;6.996;2022-10-31T01:28:34;19.13;;;10.18;;
4569;SDS011;2297;51.442;6.996;2022-10-31T01:31:02;24.02;;;10.18;;
4569;SDS011;2297;51.442;6.996;2022-10-31T01:33:30;24.27;;;11.05;;
4569;SDS011;2297;51.442;6.996;2022-10-31T01:35:56;20.20;;;10.65;;
4569;SDS011;2297;51.442;6.996;2022-10-31T01:38:23;23.02;;;10.07;;
4569;SDS011;2297;51.442;6.996;2022-10-31T01:40:50;21.50;;;10.02;;
4569;SDS011;2297;51.442;6.996;2022-10-31T01:43:17;18.63;;;8.93;;
4569;SDS011;2297;51.442;6.996;2022-10-31T01:45:46;19.98;;;8.95;;
4569;SDS011;2297;51.442;6.996;2022-10-31T01:48:19;16.10;;;8.25;;
4569;SDS011;2297;51.442;6.996;2022-10-31T01:50:50;18.67;;;8.63;;
4569;SDS011;2297;51.442;6.996;2022-10-31T01:53:35;19.50;;;8.82;;
4569;SDS011;2297;51.442;6.996;2022-10-31T01:56:02;22.73;;;8.57;;
4569;SDS011;2297;51.442;6.996;2022-10-31T01:58:29;16.63;;;8.75;;
4569;SDS011;2297;51.442;6.996;2022-10-31T02:00:59;23.30;;;8.82;;
4569;SDS011;2297;51.442;6.996;2022-10-31T02:03:26;16.65;;;8.95;;
4569;SDS011;2297;51.442;6.996;2022-10-31T02:05:55;16.73;;;8.48;;
4569;SDS011;2297;51.442;6.996;2022-10-31T02:08:25;20.98;;;9.02;;
4569;SDS011;2297;51.442;6.996;2022-10-31T02:10:54;18.10;;;8.23;;
4569;SDS011;2297;51.442;6.996;2022-10-31T02:13:22;20.92;;;8.68;;
4569;SDS011;2297;51.442;6.996;2022-10-31T02:15:49;20.77;;;8.95;;
4569;SDS011;2297;51.442;6.996;2022-10-31T02:18:21;17.95;;;8.77;;
4569;SDS011;2297;51.442;6.996;2022-10-31T02:20:52;16.20;;;9.18;;
4569;SDS011;2297;51.442;6.996;2022-10-31T02:26:32;18.48;;;9.00;;
4569;SDS011;2297;51.442;6.996;2022-10-31T02:29:21;16.08;;;8.15;;
4569;SDS011;2297;51.442;6.996;2022-10-31T02:32:24;16.15;;;9.05;;
4569;SDS011;2297;51.442;6.996;2022-10-31T02:37:25;17.17;;;7.93;;
4569;SDS011;2297;51.442;6.996;2022-10-31T02:40:04;18.63;;;8.07;;
4569;SDS011;2297;51.442;6.996;2022-10-31T02:42:38;20.40;;;9.15;;
4569;SDS011;2297;51.442;6.996;2022-10-31T02:45:13;18.48;;;9.35;;
4569;SDS011;2297;51.442;6.996;2022-10-31T02:47:46;18.67;;;9.40;;
4569;SDS011;2297;51.442;6.996;2022-10-31T02:50:20;16.63;;;8.85;;
4569;SDS011;2297;51.442;6.996;2022-10-31T02:52:50;19.45;;;8.80;;
4569;SDS011;2297;51.442;6.996;2022-10-31T02:58:11;17.77;;;9.07;;
4569;SDS011;2297;51.442;6.996;2022-10-31T03:00:42;14.82;;;8.27;;
4569;SDS011;2297;51.442;6.996;2022-10-31T03:03:22;17.35;;;8.35;;
4569;SDS011;2297;51.442;6.996;2022-10-31T03:05:57;30.48;;;9.40;;
4569;SDS011;2297;51.442;6.996;2022-10-31T03:08:32;13.98;;;8.25;;
4569;SDS011;2297;51.442;6.996;2022-10-31T03:11:05;25.95;;;9.02;;
4569;SDS011;2297;51.442;6.996;2022-10-31T03:13:34;18.10;;;8.48;;
4569;SDS011;2297;51.442;6.996;2022-10-31T03:16:07;22.55;;;8.77;;
4569;SDS011;2297;51.442;6.996;2022-10-31T03:18:40;17.65;;;8.82;;
4569;SDS011;2297;51.442;6.996;2022-10-31T03:21:14;16.38;;;8.70;;
4569;SDS011;2297;51.442;6.996;2022-10-31T03:23:46;21.30;;;8.95;;
4569;SDS011;2297;51.442;6.996;2022-10-31T03:26:16;21.83;;;9.40;;
4569;SDS011;2297;51.442;6.996;2022-10-31T03:28:46;20.20;;;8.82;;
4569;SDS011;2297;51.442;6.996;2022-10-31T03:31:21;17.42;;;8.65;;
4569;SDS011;2297;51.442;6.996;2022-10-31T03:33:54;18.20;;;9.07;;
4569;SDS011;2297;51.442;6.996;2022-10-31T03:36:24;16.23;;;8.43;;
4569;SDS011;2297;51.442;6.996;2022-10-31T03:38:53;21.50;;;8.48;;
4569;SDS011;2297;51.442;6.996;2022-10-31T03:41:21;15.95;;;8.48;;
4569;SDS011;2297;51.442;6.996;2022-10-31T03:43:57;15.48;;;9.07;;
4569;SDS011;2297;51.442;6.996;2022-10-31T03:46:30;21.83;;;9.50;;
4569;SDS011;2297;51.442;6.996;2022-10-31T03:48:58;22.98;;;10.18;;
4569;SDS011;2297;51.442;6.996;2022-10-31T03:51:26;18.05;;;9.25;;
4569;SDS011;2297;51.442;6.996;2022-10-31T03:54:01;19.05;;;8.77;;
4569;SDS011;2297;51.442;6.996;2022-10-31T03:56:32;18.77;;;9.05;;
4569;SDS011;2297;51.442;6.996;2022-10-31T03:59:02;19.45;;;8.45;;
4569;SDS011;2297;51.442;6.996;2022-10-31T04:01:33;18.25;;;9.07;;
4569;SDS011;2297;51.442;6.996;2022-10-31T04:04:06;19.33;;;9.05;;
4569;SDS011;2297;51.442;6.996;2022-10-31T04:06:34;19.50;;;8.77;;
4569;SDS011;2297;51.442;6.996;2022-10-31T04:09:04;18.58;;;8.57;;
4569;SDS011;2297;51.442;6.996;2022-10-31T04:11:33;18.40;;;8.80;;
4569;SDS011;2297;51.442;6.996;2022-10-31T04:14:02;17.38;;;8.57;;
4569;SDS011;2297;51.442;6.996;2022-10-31T04:16:30;17.58;;;8.65;;
4569;SDS011;2297;51.442;6.996;2022-10-31T04:18:58;16.55;;;8.55;;
4569;SDS011;2297;51.442;6.996;2022-10-31T04:21:29;17.30;;;8.63;;
4569;SDS011;2297;51.442;6.996;2022-10-31T04:23:56;17.25;;;8.50;;
4569;SDS011;2297;51.442;6.996;2022-10-31T04:26:23;20.48;;;8.90;;
4569;SDS011;2297;51.442;6.996;2022-10-31T04:28:50;23.92;;;8.48;;
4569;SDS011;2297;51.442;6.996;2022-10-31T04:31:17;18.63;;;8.52;;
4569;SDS011;2297;51.442;6.996;2022-10-31T04:33:44;19.08;;;8.07;;
4569;SDS011;2297;51.442;6.996;2022-10-31T04:36:10;16.38;;;8.65;;
4569;SDS011;2297;51.442;6.996;2022-10-31T04:38:38;18.73;;;8.77;;
4569;SDS011;2297;51.442;6.996;2022-10-31T04:41:05;16.88;;;9.38;;
4569;SDS011;2297;51.442;6.996;2022-10-31T04:43:32;17.70;;;8.75;;
4569;SDS011;2297;51.442;6.996;2022-10-31T04:45:58;15.48;;;8.05;;
4569;SDS011;2297;51.442;6.996;2022-10-31T04:48:25;17.23;;;8.25;;
4569;SDS011;2297;51.442;6.996;2022-10-31T04:50:52;17.38;;;8.73;;
4569;SDS011;2297;51.442;6.996;2022-10-31T04:53:18;17.05;;;8.50;;
4569;SDS011;2297;51.442;6.996;2022-10-31T04:55:46;17.73;;;8.32;;
4569;SDS011;2297;51.442;6.996;2022-10-31T04:58:13;15.57;;;7.53;;
4569;SDS011;2297;51.442;6.996;2022-10-31T05:00:39;20.45;;;8.75;;
4569;SDS011;2297;51.442;6.996;2022-10-31T05:03:06;21.95;;;9.35;;
4569;SDS011;2297;51.442;6.996;2022-10-31T05:05:33;16.35;;;8.40;;
4569;SDS011;2297;51.442;6.996;2022-10-31T05:07:59;22.98;;;8.80;;
4569;SDS011;2297;51.442;6.996;2022-10-31T05:10:28;20.08;;;8.90;;
4569;SDS011;2297;51.442;6.996;2022-10-31T05:12:57;18.33;;;8.40;;
4569;SDS011;2297;51.442;6.996;2022-10-31T05:15:25;18.65;;;8.80;;
4569;SDS011;2297;51.442;6.996;2022-10-31T05:17:54;15.35;;;8.18;;
4569;SDS011;2297;51.442;6.996;2022-10-31T05:20:24;16.75;;;8.88;;
4569;SDS011;2297;51.442;6.996;2022-10-31T05:22:53;21.27;;;9.98;;
4569;SDS011;2297;51.442;6.996;2022-10-31T05:25:21;18.25;;;9.02;;
4569;SDS011;2297;51.442;6.996;2022-10-31T05:27:50;18.35;;;8.73;;
4569;SDS011;2297;51.442;6.996;2022-10-31T05:30:20;18.27;;;8.95;;
4569;SDS011;2297;51.442;6.996;2022-10-31T05:32:49;21.13;;;9.40;;
4569;SDS011;2297;51.442;6.996;2022-10-31T05:35:18;16.48;;;8.60;;
4569;SDS011;2297;51.442;6.996;2022-10-31T05:37:45;14.80;;;8.50;;
4569;SDS011;2297;51.442;6.996;2022-10-31T05:40:13;23.75;;;9.60;;
4569;SDS011;2297;51.442;6.996;2022-10-31T05:42:41;21.25;;;10.05;;
4569;SDS011;2297;51.442;6.996;2022-10-31T05:45:08;23.25;;;9.50;;
4569;SDS011;2297;51.442;6.996;2022-10-31T05:47:37;21.17;;;9.63;;
4569;SDS011;2297;51.442;6.996;2022-10-31T05:50:04;26.00;;;9.88;;
4569;SDS011;2297;51.442;6.996;2022-10-31T05:52:32;20.02;;;9.30;;
4569;SDS011;2297;51.442;6.996;2022-10-31T05:54:59;21.60;;;9.88;;
4569;SDS011;2297;51.442;6.996;2022-10-31T05:57:25;22.73;;;9.82;;
4569;SDS011;2297;51.442;6.996;2022-10-31T05:59:52;18.55;;;9.45;;
4569;SDS011;2297;51.442;6.996;2022-10-31T06:02:19;22.23;;;9.77;;
4569;SDS011;2297;51.442;6.996;2022-10-31T06:04:47;22.05;;;9.73;;
4569;SDS011;2297;51.442;6.996;2022-10-31T06:07:13;20.73;;;9.93;;
4569;SDS011;2297;51.442;6.996;2022-10-31T06:09:40;22.67;;;9.32;;
4569;SDS011;2297;51.442;6.996;2022-10-31T06:12:07;22.02;;;9.75;;
4569;SDS011;2297;51.442;6.996;2022-10-31T06:14:33;24.52;;;9.52;;
4569;SDS011;2297;51.442;6.996;2022-10-31T06:17:00;23.23;;;10.57;;
4569;SDS011;2297;51.442;6.996;2022-10-31T06:22:20;22.20;;;9.32;;
4569;SDS011;2297;51.442;6.996;2022-10-31T06:24:46;19.27;;;9.10;;
4569;SDS011;2297;51.442;6.996;2022-10-31T06:27:13;19.35;;;9.07;;
4569;SDS011;2297;51.442;6.996;2022-10-31T06:29:39;17.13;;;9.65;;
4569;SDS011;2297;51.442;6.996;2022-10-31T06:32:08;20.92;;;9.98;;
4569;SDS011;2297;51.442;6.996;2022-10-31T06:34:36;18.70;;;9.40;;
4569;SDS011;2297;51.442;6.996;2022-10-31T06:37:04;24.27;;;10.20;;
4569;SDS011;2297;51.442;6.996;2022-10-31T06:39:32;18.42;;;9.80;;
4569;SDS011;2297;51.442;6.996;2022-10-31T06:41:58;16.08;;;8.82;;
4569;SDS011;2297;51.442;6.996;2022-10-31T06:44:25;19.80;;;9.68;;
4569;SDS011;2297;51.442;6.996;2022-10-31T06:46:51;16.92;;;8.85;;
4569;SDS011;2297;51.442;6.996;2022-10-31T06:49:18;22.25;;;10.15;;
4569;SDS011;2297;51.442;6.996;2022-10-31T06:51:46;20.20;;;9.38;;
4569;SDS011;2297;51.442;6.996;2022-10-31T06:54:15;17.05;;;9.40;;
4569;SDS011;2297;51.442;6.996;2022-10-31T06:56:42;24.60;;;10.32;;
4569;SDS011;2297;51.442;6.996;2022-10-31T06:59:12;19.05;;;9.50;;
4569;SDS011;2297;51.442;6.996;2022-10-31T07:01:38;24.20;;;10.80;;
4569;SDS011;2297;51.442;6.996;2022-10-31T07:04:05;25.67;;;11.23;;
4569;SDS011;2297;51.442;6.996;2022-10-31T07:06:32;23.67;;;10.82;;
4569;SDS011;2297;51.442;6.996;2022-10-31T07:08:58;25.10;;;10.80;;
4569;SDS011;2297;51.442;6.996;2022-10-31T07:11:26;23.98;;;10.88;;
4569;SDS011;2297;51.442;6.996;2022-10-31T07:13:53;22.73;;;11.60;;
4569;SDS011;2297;51.442;6.996;2022-10-31T07:16:20;20.83;;;11.40;;
4569;SDS011;2297;51.442;6.996;2022-10-31T07:18:46;27.27;;;12.13;;
4569;SDS011;2297;51.442;6.996;2022-10-31T07:21:13;22.67;;;10.60;;
4569;SDS011;2297;51.442;6.996;2022-10-31T07:23:39;26.50;;;12.07;;
4569;SDS011;2297;51.442;6.996;2022-10-31T07:26:07;24.08;;;11.95;;
4569;SDS011;2297;51.442;6.996;2022-10-31T07:28:35;25.30;;;12.15;;
4569;SDS011;2297;51.442;6.996;2022-10-31T07:31:02;25.77;;;12.98;;
4569;SDS011;2297;51.442;6.996;2022-10-31T07:33:28;26.30;;;11.70;;
4569;SDS011;2297;51.442;6.996;2022-10-31T07:35:55;20.48;;;10.85;;
4569;SDS011;2297;51.442;6.996;2022-10-31T07:38:21;22.00;;;10.82;;
4569;SDS011;2297;51.442;6.996;2022-10-31T07:40:49;24.48;;;11.70;;
4569;SDS011;2297;51.442;6.996;2022-10-31T07:43:17;24.58;;;12.52;;
4569;SDS011;2297;51.442;6.996;2022-10-31T07:45:49;26.20;;;13.90;;
4569;SDS011;2297;51.442;6.996;2022-10-31T07:48:17;26.83;;;11.82;;
4569;SDS011;2297;51.442;6.996;2022-10-31T07:50:44;30.83;;;12.85;;
4569;SDS011;2297;51.442;6.996;2022-10-31T07:53:11;26.02;;;12.13;;
4569;SDS011;2297;51.442;6.996;2022-10-31T07:55:39;27.10;;;11.77;;
4569;SDS011;2297;51.442;6.996;2022-10-31T07:58:06;28.70;;;12.23;;
4569;SDS011;2297;51.442;6.996;2022-10-31T08:00:35;25.52;;;11.63;;
4569;SDS011;2297;51.442;6.996;2022-10-31T08:03:05;24.85;;;12.13;;
4569;SDS011;2297;51.442;6.996;2022-10-31T08:05:32;28.02;;;12.13;;
4569;SDS011;2297;51.442;6.996;2022-10-31T08:08:00;22.67;;;12.32;;
4569;SDS011;2297;51.442;6.996;2022-10-31T08:10:27;30.52;;;12.10;;
4569;SDS011;2297;51.442;6.996;2022-10-31T08:12:54;28.63;;;12.70;;
4569;SDS011;2297;51.442;6.996;2022-10-31T08:15:22;29.08;;;13.50;;
4569;SDS011;2297;51.442;6.996;2022-10-31T08:17:49;32.03;;;13.13;;
4569;SDS011;2297;51.442;6.996;2022-10-31T08:20:17;33.50;;;13.45;;
4569;SDS011;2297;51.442;6.996;2022-10-31T08:22:52;25.80;;;12.68;;
4569;SDS011;2297;51.442;6.996;2022-10-31T08:25:19;29.58;;;12.55;;
4569;SDS011;2297;51.442;6.996;2022-10-31T08:27:48;27.52;;;13.07;;
4569;SDS011;2297;51.442;6.996;2022-10-31T08:30:15;22.95;;;12.32;;
4569;SDS011;2297;51.442;6.996;2022-10-31T08:32:41;31.52;;;13.27;;
4569;SDS011;2297;51.442;6.996;2022-10-31T08:35:08;23.95;;;11.55;;
4569;SDS011;2297;51.442;6.996;2022-10-31T08:37:36;21.83;;;11.98;;
4569;SDS011;2297;51.442;6.996;2022-10-31T08:40:03;24.85;;;13.10;;
4569;SDS011;2297;51.442;6.996;2022-10-31T08:42:31;33.05;;;12.48;;
4569;SDS011;2297;51.442;6.996;2022-10-31T08:44:58;29.02;;;12.45;;
4569;SDS011;2297;51.442;6.996;2022-10-31T08:47:24;24.40;;;12.52;;
4569;SDS011;2297;51.442;6.996;2022-10-31T08:49:52;22.63;;;12.02;;
4569;SDS011;2297;51.442;6.996;2022-10-31T08:52:22;30.85;;;12.70;;
4569;SDS011;2297;51.442;6.996;2022-10-31T08:54:50;31.45;;;14.02;;
4569;SDS011;2297;51.442;6.996;2022-10-31T08:57:17;28.48;;;13.90;;
4569;SDS011;2297;51.442;6.996;2022-10-31T08:59:43;26.85;;;13.40;;
4569;SDS011;2297;51.442;6.996;2022-10-31T09:02:10;31.48;;;13.65;;
4569;SDS011;2297;51.442;6.996;2022-10-31T09:04:37;27.67;;;14.20;;
4569;SDS011;2297;51.442;6.996;2022-10-31T09:07:03;32.28;;;14.98;;
4569;SDS011;2297;51.442;6.996;2022-10-31T09:09:30;30.83;;;14.02;;
4569;SDS011;2297;51.442;6.996;2022-10-31T09:11:58;34.45;;;14.38;;
4569;SDS011;2297;51.442;6.996;2022-10-31T09:14:25;29.40;;;14.00;;
4569;SDS011;2297;51.442;6.996;2022-10-31T09:16:51;32.00;;;14.68;;
4569;SDS011;2297;51.442;6.996;2022-10-31T09:19:18;32.30;;;13.80;;
4569;SDS011;2297;51.442;6.996;2022-10-31T09:21:45;28.23;;;14.55;;
4569;SDS011;2297;51.442;6.996;2022-10-31T09:24:11;32.47;;;15.32;;
4569;SDS011;2297;51.442;6.996;2022-10-31T09:26:38;33.50;;;15.25;;
4569;SDS011;2297;51.442;6.996;2022-10-31T09:29:06;33.30;;;15.85;;
4569;SDS011;2297;51.442;6.996;2022-10-31T09:31:43;31.25;;;15.35;;
4569;SDS011;2297;51.442;6.996;2022-10-31T09:34:10;32.53;;;14.95;;
4569;SDS011;2297;51.442;6.996;2022-10-31T09:36:37;36.05;;;16.02;;
4569;SDS011;2297;51.442;6.996;2022-10-31T09:39:04;40.63;;;15.52;;
4569;SDS011;2297;51.442;6.996;2022-10-31T09:41:33;29.25;;;15.20;;
4569;SDS011;2297;51.442;6.996;2022-10-31T09:44:17;38.33;;;16.08;;
4569;SDS011;2297;51.442;6.996;2022-10-31T09:46:52;32.33;;;14.18;;
4569;SDS011;2297;51.442;6.996;2022-10-31T09:49:33;32.53;;;15.67;;
4569;SDS011;2297;51.442;6.996;2022-10-31T09:52:13;30.63;;;14.35;;
4569;SDS011;2297;51.442;6.996;2022-10-31T09:54:47;33.05;;;15.13;;
4569;SDS011;2297;51.442;6.996;2022-10-31T09:57:19;30.92;;;14.82;;
4569;SDS011;2297;51.442;6.996;2022-10-31T09:59:52;31.27;;;15.75;;
4569;SDS011;2297;51.442;6.996;2022-10-31T10:02:20;33.75;;;15.93;;
4569;SDS011;2297;51.442;6.996;2022-10-31T10:04:52;36.10;;;15.57;;
4569;SDS011;2297;51.442;6.996;2022-10-31T10:07:25;32.63;;;15.07;;
4569;SDS011;2297;51.442;6.996;2022-10-31T10:09:59;32.88;;;15.57;;
4569;SDS011;2297;51.442;6.996;2022-10-31T10:12:31;31.75;;;16.40;;
4569;SDS011;2297;51.442;6.996;2022-10-31T10:15:16;28.25;;;15.10;;
4569;SDS011;2297;51.442;6.996;2022-10-31T10:17:57;33.80;;;15.30;;
4569;SDS011;2297;51.442;6.996;2022-10-31T10:20:30;33.30;;;15.45;;
4569;SDS011;2297;51.442;6.996;2022-10-31T10:28:08;29.20;;;14.30;;
4569;SDS011;2297;51.442;6.996;2022-10-31T10:37:29;37.55;;;15.32;;
4569;SDS011;2297;51.442;6.996;2022-10-31T10:40:00;33.45;;;14.50;;
4569;SDS011;2297;51.442;6.996;2022-10-31T10:42:33;31.17;;;13.88;;
4569;SDS011;2297;51.442;6.996;2022-10-31T10:48:06;32.83;;;13.77;;
4569;SDS011;2297;51.442;6.996;2022-10-31T10:50:39;25.48;;;13.55;;
4569;SDS011;2297;51.442;6.996;2022-10-31T10:53:16;39.05;;;13.45;;
4569;SDS011;2297;51.442;6.996;2022-10-31T10:56:02;25.63;;;13.35;;
4569;SDS011;2297;51.442;6.996;2022-10-31T10:58:38;32.97;;;14.20;;
4569;SDS011;2297;51.442;6.996;2022-10-31T11:01:08;25.42;;;13.20;;
4569;SDS011;2297;51.442;6.996;2022-10-31T11:03:37;37.42;;;14.38;;
4569;SDS011;2297;51.442;6.996;2022-10-31T11:06:15;27.52;;;12.75;;
4569;SDS011;2297;51.442;6.996;2022-10-31T11:08:47;24.40;;;11.70;;
4569;SDS011;2297;51.442;6.996;2022-10-31T11:11:18;27.17;;;11.85;;
4569;SDS011;2297;51.442;6.996;2022-10-31T11:13:51;24.63;;;12.07;;
4569;SDS011;2297;51.442;6.996;2022-10-31T11:16:28;31.08;;;12.85;;
4569;SDS011;2297;51.442;6.996;2022-10-31T11:19:05;22.58;;;11.80;;
4569;SDS011;2297;51.442;6.996;2022-10-31T11:21:34;32.45;;;12.18;;
4569;SDS011;2297;51.442;6.996;2022-10-31T11:24:08;23.80;;;11.13;;
4569;SDS011;2297;51.442;6.996;2022-10-31T11:26:41;25.05;;;10.80;;
4569;SDS011;2297;51.442;6.996;2022-10-31T11:29:12;24.50;;;11.30;;
4569;SDS011;2297;51.442;6.996;2022-10-31T11:31:41;25.45;;;11.93;;
4569;SDS011;2297;51.442;6.996;2022-10-31T11:34:13;25.08;;;11.88;;
4569;SDS011;2297;51.442;6.996;2022-10-31T11:43:28;20.67;;;10.65;;
4569;SDS011;2297;51.442;6.996;2022-10-31T11:45:55;24.83;;;11.35;;
4569;SDS011;2297;51.442;6.996;2022-10-31T11:48:23;24.15;;;11.52;;
4569;SDS011;2297;51.442;6.996;2022-10-31T11:50:51;19.15;;;11.07;;
4569;SDS011;2297;51.442;6.996;2022-10-31T11:53:21;17.00;;;9.52;;
4569;SDS011;2297;51.442;6.996;2022-10-31T11:56:04;23.25;;;10.05;;
4569;SDS011;2297;51.442;6.996;2022-10-31T11:58:38;25.75;;;9.77;;
4569;SDS011;2297;51.442;6.996;2022-10-31T12:03:54;30.42;;;11.80;;
4569;SDS011;2297;51.442;6.996;2022-10-31T12:06:28;20.50;;;10.50;;
4569;SDS011;2297;51.442;6.996;2022-10-31T12:08:59;22.38;;;9.95;;
4569;SDS011;2297;51.442;6.996;2022-10-31T12:11:41;14.18;;;8.73;;
4569;SDS011;2297;51.442;6.996;2022-10-31T12:14:16;20.15;;;9.70;;
4569;SDS011;2297;51.442;6.996;2022-10-31T12:16:53;20.35;;;9.02;;
4569;SDS011;2297;51.442;6.996;2022-10-31T12:19:27;19.42;;;9.32;;
4569;SDS011;2297;51.442;6.996;2022-10-31T12:22:04;18.05;;;8.50;;
4569;SDS011;2297;51.442;6.996;2022-10-31T12:24:41;20.25;;;8.65;;
4569;SDS011;2297;51.442;6.996;2022-10-31T12:27:20;20.35;;;7.97;;
4569;SDS011;2297;51.442;6.996;2022-10-31T12:30:01;19.80;;;8.57;;
4569;SDS011;2297;51.442;6.996;2022-10-31T12:35:44;19.08;;;8.55;;
4569;SDS011;2297;51.442;6.996;2022-10-31T12:38:33;16.83;;;8.25;;
4569;SDS011;2297;51.442;6.996;2022-10-31T12:41:26;18.02;;;8.60;;
4569;SDS011;2297;51.442;6.996;2022-10-31T12:44:05;16.50;;;7.65;;
4569;SDS011;2297;51.442;6.996;2022-10-31T12:46:48;17.52;;;8.73;;
4569;SDS011;2297;51.442;6.996;2022-10-31T12:49:25;14.93;;;7.05;;
4569;SDS011;2297;51.442;6.996;2022-10-31T12:52:09;16.88;;;7.55;;
4569;SDS011;2297;51.442;6.996;2022-10-31T12:54:50;17.27;;;8.23;;
4569;SDS011;2297;51.442;6.996;2022-10-31T12:57:26;40.60;;;19.83;;
4569;SDS011;2297;51.442;6.996;2022-10-31T12:59:57;24.80;;;10.75;;
4569;SDS011;2297;51.442;6.996;2022-10-31T13:02:30;17.65;;;8.45;;
4569;SDS011;2297;51.442;6.996;2022-10-31T13:05:03;15.32;;;7.05;;
4569;SDS011;2297;51.442;6.996;2022-10-31T13:07:34;15.82;;;7.22;;
4569;SDS011;2297;51.442;6.996;2022-10-31T13:10:05;18.15;;;7.28;;
4569;SDS011;2297;51.442;6.996;2022-10-31T13:12:41;16.58;;;7.03;;
4569;SDS011;2297;51.442;6.996;2022-10-31T13:15:12;14.30;;;6.95;;
4569;SDS011;2297;51.442;6.996;2022-10-31T13:17:44;16.42;;;6.28;;
4569;SDS011;2297;51.442;6.996;2022-10-31T13:20:16;16.30;;;6.65;;
4569;SDS011;2297;51.442;6.996;2022-10-31T13:22:48;18.47;;;6.70;;
4569;SDS011;2297;51.442;6.996;2022-10-31T13:25:19;14.35;;;7.65;;
4569;SDS011;2297;51.442;6.996;2022-10-31T13:27:51;17.23;;;6.47;;
4569;SDS011;2297;51.442;6.996;2022-10-31T13:30:22;23.83;;;11.52;;
4569;SDS011;2297;51.442;6.996;2022-10-31T13:32:53;20.23;;;7.32;;
4569;SDS011;2297;51.442;6.996;2022-10-31T13:35:26;18.60;;;6.43;;
4569;SDS011;2297;51.442;6.996;2022-10-31T13:38:01;13.52;;;6.32;;
4569;SDS011;2297;51.442;6.996;2022-10-31T13:40:38;13.98;;;5.82;;
4569;SDS011;2297;51.442;6.996;2022-10-31T13:43:12;14.88;;;5.90;;
4569;SDS011;2297;51.442;6.996;2022-10-31T13:48:50;10.45;;;5.18;;
4569;SDS011;2297;51.442;6.996;2022-10-31T13:51:24;13.90;;;5.55;;
4569;SDS011;2297;51.442;6.996;2022-10-31T13:53:57;10.00;;;5.45;;
4569;SDS011;2297;51.442;6.996;2022-10-31T13:56:26;16.63;;;5.53;;
4569;SDS011;2297;51.442;6.996;2022-10-31T14:01:46;10.13;;;4.63;;
4569;SDS011;2297;51.442;6.996;2022-10-31T14:04:17;13.93;;;4.85;;
4569;SDS011;2297;51.442;6.996;2022-10-31T14:06:52;8.65;;;4.85;;
4569;SDS011;2297;51.442;6.996;2022-10-31T14:09:27;19.80;;;4.63;;
4569;SDS011;2297;51.442;6.996;2022-10-31T14:11:58;10.60;;;4.95;;
4569;SDS011;2297;51.442;6.996;2022-10-31T14:14:29;14.50;;;4.68;;
4569;SDS011;2297;51.442;6.996;2022-10-31T14:17:01;7.95;;;4.15;;
4569;SDS011;2297;51.442;6.996;2022-10-31T14:19:29;9.85;;;4.32;;
4569;SDS011;2297;51.442;6.996;2022-10-31T14:21:56;8.07;;;3.95;;
4569;SDS011;2297;51.442;6.996;2022-10-31T14:24:41;8.45;;;4.10;;
4569;SDS011;2297;51.442;6.996;2022-10-31T14:32:43;12.10;;;4.68;;
4569;SDS011;2297;51.442;6.996;2022-10-31T14:35:15;9.82;;;4.60;;
4569;SDS011;2297;51.442;6.996;2022-10-31T14:40:33;11.88;;;4.10;;
4569;SDS011;2297;51.442;6.996;2022-10-31T14:46:01;17.95;;;4.18;;
4569;SDS011;2297;51.442;6.996;2022-10-31T14:48:39;14.77;;;4.60;;
4569;SDS011;2297;51.442;6.996;2022-10-31T14:51:20;9.88;;;3.85;;
4569;SDS011;2297;51.442;6.996;2022-10-31T14:53:49;14.18;;;4.90;;
4569;SDS011;2297;51.442;6.996;2022-10-31T14:56:19;13.57;;;4.45;;
4569;SDS011;2297;51.442;6.996;2022-10-31T14:58:49;19.33;;;4.70;;
4569;SDS011;2297;51.442;6.996;2022-10-31T15:01:18;11.10;;;3.97;;
4569;SDS011;2297;51.442;6.996;2022-10-31T15:03:49;10.93;;;3.83;;
4569;SDS011;2297;51.442;6.996;2022-10-31T15:06:17;15.60;;;4.47;;
4569;SDS011;2297;51.442;6.996;2022-10-31T15:08:47;11.15;;;4.93;;
4569;SDS011;2297;51.442;6.996;2022-10-31T15:11:16;9.32;;;4.20;;
4569;SDS011;2297;51.442;6.996;2022-10-31T15:13:46;12.70;;;4.25;;
4569;SDS011;2297;51.442;6.996;2022-10-31T15:16:14;14.50;;;5.07;;
4569;SDS011;2297;51.442;6.996;2022-10-31T15:18:46;7.07;;;4.18;;
4569;SDS011;2297;51.442;6.996;2022-10-31T15:21:15;9.68;;;4.05;;
4569;SDS011;2297;51.442;6.996;2022-10-31T15:23:44;10.50;;;4.47;;
4569;SDS011;2297;51.442;6.996;2022-10-31T15:26:14;11.75;;;4.53;;
4569;SDS011;2297;51.442;6.996;2022-10-31T15:28:44;12.15;;;4.57;;
4569;SDS011;2297;51.442;6.996;2022-10-31T15:31:14;19.30;;;4.65;;
4569;SDS011;2297;51.442;6.996;2022-10-31T15:37:07;12.43;;;4.30;;
4569;SDS011;2297;51.442;6.996;2022-10-31T15:39:38;11.85;;;4.22;;
4569;SDS011;2297;51.442;6.996;2022-10-31T15:42:13;18.33;;;4.47;;
4569;SDS011;2297;51.442;6.996;2022-10-31T15:44:44;7.55;;;4.30;;
4569;SDS011;2297;51.442;6.996;2022-10-31T15:47:16;10.55;;;5.03;;
4569;SDS011;2297;51.442;6.996;2022-10-31T15:49:46;9.95;;;4.28;;
4569;SDS011;2297;51.442;6.996;2022-10-31T15:52:17;12.68;;;4.40;;
4569;SDS011;2297;51.442;6.996;2022-10-31T15:54:51;20.33;;;5.22;;
4569;SDS011;2297;51.442;6.996;2022-10-31T15:57:20;14.07;;;5.18;;
4569;SDS011;2297;51.442;6.996;2022-10-31T15:59:48;18.60;;;4.57;;
4569;SDS011;2297;51.442;6.996;2022-10-31T16:02:18;11.02;;;4.30;;
4569;SDS011;2297;51.442;6.996;2022-10-31T16:04:49;17.77;;;5.25;;
4569;SDS011;2297;51.442;6.996;2022-10-31T16:07:18;11.13;;;4.68;;
4569;SDS011;2297;51.442;6.996;2022-10-31T16:09:56;13.00;;;5.90;;
4569;SDS011;2297;51.442;6.996;2022-10-31T16:15:31;10.98;;;4.90;;
4569;SDS011;2297;51.442;6.996;2022-10-31T16:18:00;10.35;;;4.53;;